sensor_id;sensor_type;location;lat;lon;timestamp;temperature;humidity
17215;DHT22;8723;51.502;6.918;2023-06-19T00:02:11;23.90;1.00
17215;DHT22;8723;51.502;6.918;2023-06-19T00:04:38;23.80;1.00
17215;DHT22;8723;51.502;6.918;2023-06-19T00:07:06;23.80;1.00
17215;DHT22;8723;51.502;6.918;2023-06-19T00:09:33;23.80;1.00
17215;DHT22;8723;51.502;6.918;2023-06-19T00:12:00;23.80;1.00
17215;DHT22;8723;51.502;6.918;2023-06-19T00:14:27;23.70;1.00
17215;DHT22;8723;51.502;6.918;2023-06-19T00:16:54;23.70;1.00
17215;DHT22;8723;51.502;6.918;2023-06-19T00:19:21;23.60;1.00
17215;DHT22;8723;51.502;6.918;2023-06-19T00:21:48;23.60;1.00
17215;DHT22;8723;51.502;6.918;2023-06-19T00:24:16;23.50;1.00
17215;DHT22;8723;51.502;6.918;2023-06-19T00:26:43;23.50;1.00
17215;DHT22;8723;51.502;6.918;2023-06-19T00:29:10;23.40;1.00
17215;DHT22;8723;51.502;6.918;2023-06-19T00:31:37;23.40;1.00
17215;DHT22;8723;51.502;6.918;2023-06-19T00:34:03;23.40;1.00
17215;DHT22;8723;51.502;6.918;2023-06-19T00:36:30;23.30;1.00
17215;DHT22;8723;51.502;6.918;2023-06-19T00:38:57;23.30;1.00
17215;DHT22;8723;51.502;6.918;2023-06-19T00:41:26;23.30;1.00
17215;DHT22;8723;51.502;6.918;2023-06-19T00:43:57;23.20;1.00
17215;DHT22;8723;51.502;6.918;2023-06-19T00:46:24;23.10;1.00
17215;DHT22;8723;51.502;6.918;2023-06-19T00:48:51;23.10;1.00
17215;DHT22;8723;51.502;6.918;2023-06-19T00:51:17;23.00;1.00
17215;DHT22;8723;51.502;6.918;2023-06-19T00:53:44;23.00;1.00
17215;DHT22;8723;51.502;6.918;2023-06-19T00:56:12;23.00;1.00
17215;DHT22;8723;51.502;6.918;2023-06-19T00:58:42;23.00;1.00
17215;DHT22;8723;51.502;6.918;2023-06-19T01:01:10;23.00;1.00
17215;DHT22;8723;51.502;6.918;2023-06-19T01:03:37;22.90;1.00
17215;DHT22;8723;51.502;6.918;2023-06-19T01:06:07;22.90;1.00
17215;DHT22;8723;51.502;6.918;2023-06-19T01:08:47;22.90;1.00
17215;DHT22;8723;51.502;6.918;2023-06-19T01:11:20;22.90;1.00
17215;DHT22;8723;51.502;6.918;2023-06-19T01:13:53;22.80;1.00
17215;DHT22;8723;51.502;6.918;2023-06-19T01:16:21;22.90;1.00
17215;DHT22;8723;51.502;6.918;2023-06-19T01:18:49;22.80;1.00
17215;DHT22;8723;51.502;6.918;2023-06-19T01:21:17;22.80;1.00
17215;DHT22;8723;51.502;6.918;2023-06-19T01:23:46;22.80;1.00
17215;DHT22;8723;51.502;6.918;2023-06-19T01:26:13;22.70;1.00
17215;DHT22;8723;51.502;6.918;2023-06-19T01:28:41;22.70;1.00
17215;DHT22;8723;51.502;6.918;2023-06-19T01:31:12;22.70;1.00
17215;DHT22;8723;51.502;6.918;2023-06-19T01:33:40;22.60;1.00
17215;DHT22;8723;51.502;6.918;2023-06-19T01:36:09;22.60;1.00
17215;DHT22;8723;51.502;6.918;2023-06-19T01:38:38;22.50;1.00
17215;DHT22;8723;51.502;6.918;2023-06-19T01:41:10;22.50;1.00
17215;DHT22;8723;51.502;6.918;2023-06-19T01:43:41;22.30;1.00
17215;DHT22;8723;51.502;6.918;2023-06-19T01:46:10;22.20;1.00
17215;DHT22;8723;51.502;6.918;2023-06-19T01:48:39;22.10;1.00
17215;DHT22;8723;51.502;6.918;2023-06-19T01:51:07;22.10;1.00
17215;DHT22;8723;51.502;6.918;2023-06-19T01:53:38;22.00;1.00
17215;DHT22;8723;51.502;6.918;2023-06-19T01:56:10;21.90;1.00
17215;DHT22;8723;51.502;6.918;2023-06-19T01:58:40;21.90;1.00
17215;DHT22;8723;51.502;6.918;2023-06-19T02:01:09;21.80;1.00
17215;DHT22;8723;51.502;6.918;2023-06-19T02:03:39;21.70;1.00
17215;DHT22;8723;51.502;6.918;2023-06-19T02:06:09;21.60;1.00
17215;DHT22;8723;51.502;6.918;2023-06-19T02:08:39;21.60;1.00
17215;DHT22;8723;51.502;6.918;2023-06-19T02:11:08;21.60;1.00
17215;DHT22;8723;51.502;6.918;2023-06-19T02:13:35;21.60;1.00
17215;DHT22;8723;51.502;6.918;2023-06-19T02:16:02;21.60;1.00
17215;DHT22;8723;51.502;6.918;2023-06-19T02:18:29;21.60;1.00
17215;DHT22;8723;51.502;6.918;2023-06-19T02:20:59;21.60;1.00
17215;DHT22;8723;51.502;6.918;2023-06-19T02:23:29;21.60;1.00
17215;DHT22;8723;51.502;6.918;2023-06-19T02:25:59;21.60;1.00
17215;DHT22;8723;51.502;6.918;2023-06-19T02:28:28;21.70;1.00
17215;DHT22;8723;51.502;6.918;2023-06-19T02:30:57;21.70;1.00
17215;DHT22;8723;51.502;6.918;2023-06-19T02:33:26;21.70;1.00
17215;DHT22;8723;51.502;6.918;2023-06-19T02:35:56;21.80;1.00
17215;DHT22;8723;51.502;6.918;2023-06-19T02:38:25;21.80;1.00
17215;DHT22;8723;51.502;6.918;2023-06-19T02:40:52;21.80;1.00
17215;DHT22;8723;51.502;6.918;2023-06-19T02:43:19;21.90;1.00
17215;DHT22;8723;51.502;6.918;2023-06-19T02:45:47;21.90;1.00
17215;DHT22;8723;51.502;6.918;2023-06-19T02:48:14;21.90;1.00
17215;DHT22;8723;51.502;6.918;2023-06-19T02:50:40;21.90;1.00
17215;DHT22;8723;51.502;6.918;2023-06-19T02:53:07;21.90;1.00
17215;DHT22;8723;51.502;6.918;2023-06-19T02:55:34;22.00;1.00
17215;DHT22;8723;51.502;6.918;2023-06-19T02:58:01;22.00;1.00
17215;DHT22;8723;51.502;6.918;2023-06-19T03:00:28;22.00;1.00
17215;DHT22;8723;51.502;6.918;2023-06-19T03:02:58;22.00;1.00
17215;DHT22;8723;51.502;6.918;2023-06-19T03:05:28;22.10;1.00
17215;DHT22;8723;51.502;6.918;2023-06-19T03:07:58;22.10;1.00
17215;DHT22;8723;51.502;6.918;2023-06-19T03:10:27;22.10;1.00
17215;DHT22;8723;51.502;6.918;2023-06-19T03:12:57;22.10;1.00
17215;DHT22;8723;51.502;6.918;2023-06-19T03:15:26;22.10;1.00
17215;DHT22;8723;51.502;6.918;2023-06-19T03:17:53;22.10;1.00
17215;DHT22;8723;51.502;6.918;2023-06-19T03:20:21;22.10;1.00
17215;DHT22;8723;51.502;6.918;2023-06-19T03:22:48;22.20;1.00
17215;DHT22;8723;51.502;6.918;2023-06-19T03:25:15;22.20;1.00
17215;DHT22;8723;51.502;6.918;2023-06-19T03:27:42;22.10;1.00
17215;DHT22;8723;51.502;6.918;2023-06-19T03:30:09;22.20;1.00
17215;DHT22;8723;51.502;6.918;2023-06-19T03:32:38;22.10;1.00
17215;DHT22;8723;51.502;6.918;2023-06-19T03:35:05;22.20;1.00
17215;DHT22;8723;51.502;6.918;2023-06-19T03:37:33;22.20;1.00
17215;DHT22;8723;51.502;6.918;2023-06-19T03:40:00;22.20;1.00
17215;DHT22;8723;51.502;6.918;2023-06-19T03:42:27;22.20;1.00
17215;DHT22;8723;51.502;6.918;2023-06-19T03:44:53;22.20;1.00
17215;DHT22;8723;51.502;6.918;2023-06-19T03:47:21;22.20;1.00
17215;DHT22;8723;51.502;6.918;2023-06-19T03:49:48;22.20;1.00
17215;DHT22;8723;51.502;6.918;2023-06-19T03:52:15;22.30;1.00
17215;DHT22;8723;51.502;6.918;2023-06-19T03:54:43;22.20;1.00
17215;DHT22;8723;51.502;6.918;2023-06-19T03:57:10;22.10;1.00
17215;DHT22;8723;51.502;6.918;2023-06-19T03:59:36;22.10;1.00
17215;DHT22;8723;51.502;6.918;2023-06-19T04:02:04;22.00;1.00
17215;DHT22;8723;51.502;6.918;2023-06-19T04:04:30;22.00;1.00
17215;DHT22;8723;51.502;6.918;2023-06-19T04:06:57;22.00;1.00
17215;DHT22;8723;51.502;6.918;2023-06-19T04:09:24;22.00;1.00
17215;DHT22;8723;51.502;6.918;2023-06-19T04:11:52;22.00;1.00
17215;DHT22;8723;51.502;6.918;2023-06-19T04:14:19;22.00;1.00
17215;DHT22;8723;51.502;6.918;2023-06-19T04:16:48;21.90;1.00
17215;DHT22;8723;51.502;6.918;2023-06-19T04:19:15;21.90;1.00
17215;DHT22;8723;51.502;6.918;2023-06-19T04:21:42;21.80;1.00
17215;DHT22;8723;51.502;6.918;2023-06-19T04:24:08;21.80;1.00
17215;DHT22;8723;51.502;6.918;2023-06-19T04:26:36;21.70;1.00
17215;DHT22;8723;51.502;6.918;2023-06-19T04:29:04;21.70;1.00
17215;DHT22;8723;51.502;6.918;2023-06-19T04:31:31;21.70;1.00
17215;DHT22;8723;51.502;6.918;2023-06-19T04:33:58;21.70;1.00
17215;DHT22;8723;51.502;6.918;2023-06-19T04:36:25;21.70;1.00
17215;DHT22;8723;51.502;6.918;2023-06-19T04:38:52;21.70;1.00
17215;DHT22;8723;51.502;6.918;2023-06-19T04:41:18;21.70;1.00
17215;DHT22;8723;51.502;6.918;2023-06-19T04:43:45;21.70;1.00
17215;DHT22;8723;51.502;6.918;2023-06-19T04:46:13;21.50;1.00
17215;DHT22;8723;51.502;6.918;2023-06-19T04:48:45;21.60;1.00
17215;DHT22;8723;51.502;6.918;2023-06-19T04:51:16;21.50;1.00
17215;DHT22;8723;51.502;6.918;2023-06-19T04:53:45;21.50;1.00
17215;DHT22;8723;51.502;6.918;2023-06-19T04:56:12;21.50;1.00
17215;DHT22;8723;51.502;6.918;2023-06-19T04:58:39;21.50;1.00
17215;DHT22;8723;51.502;6.918;2023-06-19T05:01:12;21.50;1.00
17215;DHT22;8723;51.502;6.918;2023-06-19T05:03:39;21.40;1.00
17215;DHT22;8723;51.502;6.918;2023-06-19T05:06:07;21.30;1.00
17215;DHT22;8723;51.502;6.918;2023-06-19T05:08:34;21.40;1.00
17215;DHT22;8723;51.502;6.918;2023-06-19T05:11:00;21.40;1.00
17215;DHT22;8723;51.502;6.918;2023-06-19T05:13:27;21.30;1.00
17215;DHT22;8723;51.502;6.918;2023-06-19T05:15:54;21.40;1.00
17215;DHT22;8723;51.502;6.918;2023-06-19T05:18:22;21.40;1.00
17215;DHT22;8723;51.502;6.918;2023-06-19T05:20:49;21.50;1.00
17215;DHT22;8723;51.502;6.918;2023-06-19T05:23:16;21.50;1.00
17215;DHT22;8723;51.502;6.918;2023-06-19T05:25:43;21.60;1.00
17215;DHT22;8723;51.502;6.918;2023-06-19T05:28:09;21.70;1.00
17215;DHT22;8723;51.502;6.918;2023-06-19T05:30:36;21.70;1.00
17215;DHT22;8723;51.502;6.918;2023-06-19T05:33:03;21.70;1.00
17215;DHT22;8723;51.502;6.918;2023-06-19T05:35:31;21.60;1.00
17215;DHT22;8723;51.502;6.918;2023-06-19T05:37:58;21.60;1.00
17215;DHT22;8723;51.502;6.918;2023-06-19T05:40:25;21.60;1.00
17215;DHT22;8723;51.502;6.918;2023-06-19T05:42:51;21.60;1.00
17215;DHT22;8723;51.502;6.918;2023-06-19T05:45:18;21.70;1.00
17215;DHT22;8723;51.502;6.918;2023-06-19T05:47:45;21.70;1.00
17215;DHT22;8723;51.502;6.918;2023-06-19T05:50:12;21.70;1.00
17215;DHT22;8723;51.502;6.918;2023-06-19T05:52:40;21.70;1.00
17215;DHT22;8723;51.502;6.918;2023-06-19T05:55:09;21.70;1.00
17215;DHT22;8723;51.502;6.918;2023-06-19T05:57:35;21.80;1.00
17215;DHT22;8723;51.502;6.918;2023-06-19T06:00:03;21.80;1.00
17215;DHT22;8723;51.502;6.918;2023-06-19T06:02:31;21.80;1.00
17215;DHT22;8723;51.502;6.918;2023-06-19T06:05:00;21.80;1.00
17215;DHT22;8723;51.502;6.918;2023-06-19T06:07:27;21.90;1.00
17215;DHT22;8723;51.502;6.918;2023-06-19T06:09:56;22.00;1.00
17215;DHT22;8723;51.502;6.918;2023-06-19T06:12:23;22.10;1.00
17215;DHT22;8723;51.502;6.918;2023-06-19T06:14:50;22.10;1.00
17215;DHT22;8723;51.502;6.918;2023-06-19T06:17:16;22.10;1.00
17215;DHT22;8723;51.502;6.918;2023-06-19T06:19:43;22.20;1.00
17215;DHT22;8723;51.502;6.918;2023-06-19T06:22:10;22.20;1.00
17215;DHT22;8723;51.502;6.918;2023-06-19T06:24:37;22.20;1.00
17215;DHT22;8723;51.502;6.918;2023-06-19T06:27:06;22.20;1.00
17215;DHT22;8723;51.502;6.918;2023-06-19T06:29:33;22.20;1.00
17215;DHT22;8723;51.502;6.918;2023-06-19T06:32:03;22.20;1.00
17215;DHT22;8723;51.502;6.918;2023-06-19T06:34:31;22.20;1.00
17215;DHT22;8723;51.502;6.918;2023-06-19T06:36:58;22.20;1.00
17215;DHT22;8723;51.502;6.918;2023-06-19T06:39:25;22.20;1.00
17215;DHT22;8723;51.502;6.918;2023-06-19T06:41:52;22.10;1.00
17215;DHT22;8723;51.502;6.918;2023-06-19T06:44:20;22.00;1.00
17215;DHT22;8723;51.502;6.918;2023-06-19T06:46:47;22.00;1.00
17215;DHT22;8723;51.502;6.918;2023-06-19T06:49:14;22.00;1.00
17215;DHT22;8723;51.502;6.918;2023-06-19T06:51:42;22.10;1.00
17215;DHT22;8723;51.502;6.918;2023-06-19T06:54:09;22.10;1.00
17215;DHT22;8723;51.502;6.918;2023-06-19T06:56:36;22.10;1.00
17215;DHT22;8723;51.502;6.918;2023-06-19T06:59:03;22.10;1.00
17215;DHT22;8723;51.502;6.918;2023-06-19T07:01:31;22.10;1.00
17215;DHT22;8723;51.502;6.918;2023-06-19T07:03:57;22.10;1.00
17215;DHT22;8723;51.502;6.918;2023-06-19T07:06:24;22.10;1.00
17215;DHT22;8723;51.502;6.918;2023-06-19T07:08:51;22.00;1.00
17215;DHT22;8723;51.502;6.918;2023-06-19T07:11:18;22.00;1.00
17215;DHT22;8723;51.502;6.918;2023-06-19T07:13:45;22.00;1.00
17215;DHT22;8723;51.502;6.918;2023-06-19T07:16:12;22.00;1.00
17215;DHT22;8723;51.502;6.918;2023-06-19T07:18:40;22.00;1.00
17215;DHT22;8723;51.502;6.918;2023-06-19T07:21:11;22.00;1.00
17215;DHT22;8723;51.502;6.918;2023-06-19T07:23:39;22.00;1.00
17215;DHT22;8723;51.502;6.918;2023-06-19T07:26:06;21.90;1.00
17215;DHT22;8723;51.502;6.918;2023-06-19T07:28:32;22.00;1.00
17215;DHT22;8723;51.502;6.918;2023-06-19T07:31:01;21.90;1.00
17215;DHT22;8723;51.502;6.918;2023-06-19T07:33:29;21.80;1.00
17215;DHT22;8723;51.502;6.918;2023-06-19T07:35:57;21.60;1.00
17215;DHT22;8723;51.502;6.918;2023-06-19T07:38:25;21.50;1.00
17215;DHT22;8723;51.502;6.918;2023-06-19T07:40:51;21.50;1.00
17215;DHT22;8723;51.502;6.918;2023-06-19T07:43:18;21.50;1.00
17215;DHT22;8723;51.502;6.918;2023-06-19T07:45:47;21.40;1.00
17215;DHT22;8723;51.502;6.918;2023-06-19T07:48:14;21.40;1.00
17215;DHT22;8723;51.502;6.918;2023-06-19T07:50:41;21.40;1.00
17215;DHT22;8723;51.502;6.918;2023-06-19T07:53:09;21.50;1.00
17215;DHT22;8723;51.502;6.918;2023-06-19T07:55:36;21.50;1.00
17215;DHT22;8723;51.502;6.918;2023-06-19T07:58:03;21.70;1.00
17215;DHT22;8723;51.502;6.918;2023-06-19T08:00:30;21.80;1.00
17215;DHT22;8723;51.502;6.918;2023-06-19T08:02:56;22.00;1.00
17215;DHT22;8723;51.502;6.918;2023-06-19T08:05:23;22.10;1.00
17215;DHT22;8723;51.502;6.918;2023-06-19T08:07:50;22.30;1.00
17215;DHT22;8723;51.502;6.918;2023-06-19T08:10:18;22.40;1.00
17215;DHT22;8723;51.502;6.918;2023-06-19T08:12:45;22.50;1.00
17215;DHT22;8723;51.502;6.918;2023-06-19T08:15:12;22.50;1.00
17215;DHT22;8723;51.502;6.918;2023-06-19T08:17:40;22.70;1.00
17215;DHT22;8723;51.502;6.918;2023-06-19T08:20:07;22.80;1.00
17215;DHT22;8723;51.502;6.918;2023-06-19T08:22:35;22.90;1.00
17215;DHT22;8723;51.502;6.918;2023-06-19T08:25:04;23.10;1.00
17215;DHT22;8723;51.502;6.918;2023-06-19T08:27:32;23.10;1.00
17215;DHT22;8723;51.502;6.918;2023-06-19T08:29:59;23.20;1.00
17215;DHT22;8723;51.502;6.918;2023-06-19T08:32:26;23.40;1.00
17215;DHT22;8723;51.502;6.918;2023-06-19T08:34:53;23.40;1.00
17215;DHT22;8723;51.502;6.918;2023-06-19T08:37:20;23.60;1.00
17215;DHT22;8723;51.502;6.918;2023-06-19T08:39:46;23.80;1.00
17215;DHT22;8723;51.502;6.918;2023-06-19T08:42:13;23.80;1.00
17215;DHT22;8723;51.502;6.918;2023-06-19T08:44:41;24.00;1.00
17215;DHT22;8723;51.502;6.918;2023-06-19T08:47:09;24.00;1.00
17215;DHT22;8723;51.502;6.918;2023-06-19T08:49:36;24.20;1.00
17215;DHT22;8723;51.502;6.918;2023-06-19T08:52:03;24.30;1.00
17215;DHT22;8723;51.502;6.918;2023-06-19T08:54:30;24.40;1.00
17215;DHT22;8723;51.502;6.918;2023-06-19T08:57:00;24.40;1.00
17215;DHT22;8723;51.502;6.918;2023-06-19T08:59:27;24.40;1.00
17215;DHT22;8723;51.502;6.918;2023-06-19T09:01:56;24.30;1.00
17215;DHT22;8723;51.502;6.918;2023-06-19T09:04:25;24.40;1.00
17215;DHT22;8723;51.502;6.918;2023-06-19T09:06:53;24.50;1.00
17215;DHT22;8723;51.502;6.918;2023-06-19T09:09:23;24.50;1.00
17215;DHT22;8723;51.502;6.918;2023-06-19T09:12:00;24.50;1.00
17215;DHT22;8723;51.502;6.918;2023-06-19T09:14:34;24.60;1.00
17215;DHT22;8723;51.502;6.918;2023-06-19T09:17:03;24.70;1.00
17215;DHT22;8723;51.502;6.918;2023-06-19T09:19:30;24.80;1.00
17215;DHT22;8723;51.502;6.918;2023-06-19T09:22:00;25.00;1.00
17215;DHT22;8723;51.502;6.918;2023-06-19T09:24:34;25.00;1.00
17215;DHT22;8723;51.502;6.918;2023-06-19T09:27:06;25.20;1.00
17215;DHT22;8723;51.502;6.918;2023-06-19T09:29:36;25.40;1.00
17215;DHT22;8723;51.502;6.918;2023-06-19T09:32:16;25.40;1.00
17215;DHT22;8723;51.502;6.918;2023-06-19T09:34:42;25.40;1.00
17215;DHT22;8723;51.502;6.918;2023-06-19T09:37:09;25.40;1.00
17215;DHT22;8723;51.502;6.918;2023-06-19T09:39:37;25.40;1.00
17215;DHT22;8723;51.502;6.918;2023-06-19T09:42:06;25.60;1.00
17215;DHT22;8723;51.502;6.918;2023-06-19T09:44:39;25.70;1.00
17215;DHT22;8723;51.502;6.918;2023-06-19T09:47:09;25.80;1.00
17215;DHT22;8723;51.502;6.918;2023-06-19T09:49:47;25.80;1.00
17215;DHT22;8723;51.502;6.918;2023-06-19T09:52:15;25.70;1.00
17215;DHT22;8723;51.502;6.918;2023-06-19T09:54:43;25.60;1.00
17215;DHT22;8723;51.502;6.918;2023-06-19T09:57:10;25.60;1.00
17215;DHT22;8723;51.502;6.918;2023-06-19T09:59:38;25.60;1.00
17215;DHT22;8723;51.502;6.918;2023-06-19T10:02:06;25.70;1.00
17215;DHT22;8723;51.502;6.918;2023-06-19T10:04:43;25.70;1.00
17215;DHT22;8723;51.502;6.918;2023-06-19T10:07:19;25.80;1.00
17215;DHT22;8723;51.502;6.918;2023-06-19T10:09:59;25.80;1.00
17215;DHT22;8723;51.502;6.918;2023-06-19T10:12:40;25.90;1.00
17215;DHT22;8723;51.502;6.918;2023-06-19T10:15:17;26.10;1.00
17215;DHT22;8723;51.502;6.918;2023-06-19T10:17:46;26.20;1.00
17215;DHT22;8723;51.502;6.918;2023-06-19T10:20:26;26.40;1.00
17215;DHT22;8723;51.502;6.918;2023-06-19T10:22:59;26.60;1.00
17215;DHT22;8723;51.502;6.918;2023-06-19T10:25:29;26.80;1.00
17215;DHT22;8723;51.502;6.918;2023-06-19T10:27:57;26.90;1.00
17215;DHT22;8723;51.502;6.918;2023-06-19T10:30:24;27.00;1.00
17215;DHT22;8723;51.502;6.918;2023-06-19T10:32:51;27.10;1.00
17215;DHT22;8723;51.502;6.918;2023-06-19T10:35:19;27.20;1.00
17215;DHT22;8723;51.502;6.918;2023-06-19T10:37:49;27.20;1.00
17215;DHT22;8723;51.502;6.918;2023-06-19T10:40:16;27.30;1.00
17215;DHT22;8723;51.502;6.918;2023-06-19T10:42:43;27.40;1.00
17215;DHT22;8723;51.502;6.918;2023-06-19T10:45:11;27.50;1.00
17215;DHT22;8723;51.502;6.918;2023-06-19T10:47:39;27.50;1.00
17215;DHT22;8723;51.502;6.918;2023-06-19T10:50:10;27.60;1.00
17215;DHT22;8723;51.502;6.918;2023-06-19T10:52:40;27.70;1.00
17215;DHT22;8723;51.502;6.918;2023-06-19T10:55:09;27.90;1.00
17215;DHT22;8723;51.502;6.918;2023-06-19T10:57:37;28.00;1.00
17215;DHT22;8723;51.502;6.918;2023-06-19T11:00:05;28.00;1.00
17215;DHT22;8723;51.502;6.918;2023-06-19T11:02:37;28.20;1.00
17215;DHT22;8723;51.502;6.918;2023-06-19T11:05:05;28.30;1.00
17215;DHT22;8723;51.502;6.918;2023-06-19T11:07:32;28.10;1.00
17215;DHT22;8723;51.502;6.918;2023-06-19T11:09:59;28.10;1.00
17215;DHT22;8723;51.502;6.918;2023-06-19T11:12:27;28.20;1.00
17215;DHT22;8723;51.502;6.918;2023-06-19T11:14:54;28.10;1.00
17215;DHT22;8723;51.502;6.918;2023-06-19T11:17:22;28.10;1.00
17215;DHT22;8723;51.502;6.918;2023-06-19T11:19:49;28.30;1.00
17215;DHT22;8723;51.502;6.918;2023-06-19T11:22:16;28.40;1.00
17215;DHT22;8723;51.502;6.918;2023-06-19T11:24:44;28.40;1.00
17215;DHT22;8723;51.502;6.918;2023-06-19T11:27:19;28.40;1.00
17215;DHT22;8723;51.502;6.918;2023-06-19T11:29:56;28.50;1.00
17215;DHT22;8723;51.502;6.918;2023-06-19T11:32:29;28.50;1.00
17215;DHT22;8723;51.502;6.918;2023-06-19T11:34:57;28.50;1.00
17215;DHT22;8723;51.502;6.918;2023-06-19T11:37:24;28.70;1.00
17215;DHT22;8723;51.502;6.918;2023-06-19T11:39:51;28.80;1.00
17215;DHT22;8723;51.502;6.918;2023-06-19T11:42:18;29.10;1.00
17215;DHT22;8723;51.502;6.918;2023-06-19T11:44:56;29.10;1.00
17215;DHT22;8723;51.502;6.918;2023-06-19T11:47:24;29.10;1.00
17215;DHT22;8723;51.502;6.918;2023-06-19T11:49:51;29.20;1.00
17215;DHT22;8723;51.502;6.918;2023-06-19T11:52:18;29.40;1.00
17215;DHT22;8723;51.502;6.918;2023-06-19T11:54:45;29.40;1.00
17215;DHT22;8723;51.502;6.918;2023-06-19T11:57:12;29.40;1.00
17215;DHT22;8723;51.502;6.918;2023-06-19T11:59:39;29.30;1.00
17215;DHT22;8723;51.502;6.918;2023-06-19T12:02:07;29.40;1.00
17215;DHT22;8723;51.502;6.918;2023-06-19T12:04:35;29.50;1.00
17215;DHT22;8723;51.502;6.918;2023-06-19T12:07:02;29.60;1.00
17215;DHT22;8723;51.502;6.918;2023-06-19T12:09:30;29.50;1.00
17215;DHT22;8723;51.502;6.918;2023-06-19T12:11:57;29.50;1.00
17215;DHT22;8723;51.502;6.918;2023-06-19T12:14:24;29.50;1.00
17215;DHT22;8723;51.502;6.918;2023-06-19T12:16:51;29.70;1.00
17215;DHT22;8723;51.502;6.918;2023-06-19T12:19:20;29.80;1.00
17215;DHT22;8723;51.502;6.918;2023-06-19T12:21:47;29.90;1.00
17215;DHT22;8723;51.502;6.918;2023-06-19T12:24:13;30.00;1.00
17215;DHT22;8723;51.502;6.918;2023-06-19T12:26:40;30.20;1.00
17215;DHT22;8723;51.502;6.918;2023-06-19T12:29:07;30.30;1.00
17215;DHT22;8723;51.502;6.918;2023-06-19T12:31:34;30.50;1.00
17215;DHT22;8723;51.502;6.918;2023-06-19T12:34:02;30.50;1.00
17215;DHT22;8723;51.502;6.918;2023-06-19T12:36:31;30.50;1.00
17215;DHT22;8723;51.502;6.918;2023-06-19T12:38:59;30.30;1.00
17215;DHT22;8723;51.502;6.918;2023-06-19T12:41:26;30.10;1.00
17215;DHT22;8723;51.502;6.918;2023-06-19T12:43:52;29.90;1.00
17215;DHT22;8723;51.502;6.918;2023-06-19T12:46:19;29.90;1.00
17215;DHT22;8723;51.502;6.918;2023-06-19T12:48:46;29.70;1.00
17215;DHT22;8723;51.502;6.918;2023-06-19T12:51:16;29.60;1.00
17215;DHT22;8723;51.502;6.918;2023-06-19T12:53:44;29.50;1.00
17215;DHT22;8723;51.502;6.918;2023-06-19T12:56:11;29.60;1.00
17215;DHT22;8723;51.502;6.918;2023-06-19T12:58:38;29.50;1.00
17215;DHT22;8723;51.502;6.918;2023-06-19T13:01:05;29.50;1.00
17215;DHT22;8723;51.502;6.918;2023-06-19T13:03:31;29.70;1.00
17215;DHT22;8723;51.502;6.918;2023-06-19T13:05:58;29.60;1.00
17215;DHT22;8723;51.502;6.918;2023-06-19T13:08:25;29.80;1.00
17215;DHT22;8723;51.502;6.918;2023-06-19T13:10:53;29.90;1.00
17215;DHT22;8723;51.502;6.918;2023-06-19T13:13:20;30.20;1.00
17215;DHT22;8723;51.502;6.918;2023-06-19T13:15:47;30.50;1.00
17215;DHT22;8723;51.502;6.918;2023-06-19T13:18:13;30.80;1.00
17215;DHT22;8723;51.502;6.918;2023-06-19T13:20:40;31.10;1.00
17215;DHT22;8723;51.502;6.918;2023-06-19T13:23:07;31.20;1.00
17215;DHT22;8723;51.502;6.918;2023-06-19T13:25:36;31.40;1.00
17215;DHT22;8723;51.502;6.918;2023-06-19T13:28:04;31.70;1.00
17215;DHT22;8723;51.502;6.918;2023-06-19T13:30:31;31.90;1.00
17215;DHT22;8723;51.502;6.918;2023-06-19T13:32:58;32.20;1.00
17215;DHT22;8723;51.502;6.918;2023-06-19T13:35:24;32.40;1.00
17215;DHT22;8723;51.502;6.918;2023-06-19T13:37:51;33.10;1.00
17215;DHT22;8723;51.502;6.918;2023-06-19T13:40:18;33.80;1.00
17215;DHT22;8723;51.502;6.918;2023-06-19T13:42:45;34.70;1.00
17215;DHT22;8723;51.502;6.918;2023-06-19T13:45:13;34.50;1.00
17215;DHT22;8723;51.502;6.918;2023-06-19T13:47:40;34.60;1.00
17215;DHT22;8723;51.502;6.918;2023-06-19T13:50:07;35.30;1.00
17215;DHT22;8723;51.502;6.918;2023-06-19T13:52:34;35.30;1.00
17215;DHT22;8723;51.502;6.918;2023-06-19T13:55:02;35.80;1.00
17215;DHT22;8723;51.502;6.918;2023-06-19T13:57:29;36.20;1.00
17215;DHT22;8723;51.502;6.918;2023-06-19T13:59:56;36.00;1.00
17215;DHT22;8723;51.502;6.918;2023-06-19T14:02:24;35.80;1.00
17215;DHT22;8723;51.502;6.918;2023-06-19T14:04:51;35.00;1.00
17215;DHT22;8723;51.502;6.918;2023-06-19T14:07:19;34.90;1.00
17215;DHT22;8723;51.502;6.918;2023-06-19T14:09:47;34.30;1.00
17215;DHT22;8723;51.502;6.918;2023-06-19T14:12:14;33.80;1.00
17215;DHT22;8723;51.502;6.918;2023-06-19T14:14:41;33.10;1.00
17215;DHT22;8723;51.502;6.918;2023-06-19T14:17:08;32.60;1.00
17215;DHT22;8723;51.502;6.918;2023-06-19T14:19:36;32.10;1.00
17215;DHT22;8723;51.502;6.918;2023-06-19T14:22:03;32.00;1.00
17215;DHT22;8723;51.502;6.918;2023-06-19T14:24:30;31.80;1.00
17215;DHT22;8723;51.502;6.918;2023-06-19T14:26:57;31.60;1.00
17215;DHT22;8723;51.502;6.918;2023-06-19T14:29:24;31.30;1.00
17215;DHT22;8723;51.502;6.918;2023-06-19T14:31:51;31.00;1.00
17215;DHT22;8723;51.502;6.918;2023-06-19T14:34:18;31.00;1.00
17215;DHT22;8723;51.502;6.918;2023-06-19T14:36:47;30.80;1.00
17215;DHT22;8723;51.502;6.918;2023-06-19T14:39:13;30.60;1.00
17215;DHT22;8723;51.502;6.918;2023-06-19T14:41:41;30.70;1.00
17215;DHT22;8723;51.502;6.918;2023-06-19T14:44:08;30.60;1.00
17215;DHT22;8723;51.502;6.918;2023-06-19T14:46:34;30.50;1.00
17215;DHT22;8723;51.502;6.918;2023-06-19T14:49:05;30.50;1.00
17215;DHT22;8723;51.502;6.918;2023-06-19T14:51:32;30.40;1.00
17215;DHT22;8723;51.502;6.918;2023-06-19T14:54:00;30.30;1.00
17215;DHT22;8723;51.502;6.918;2023-06-19T14:56:27;30.30;1.00
17215;DHT22;8723;51.502;6.918;2023-06-19T14:58:54;30.20;1.00
17215;DHT22;8723;51.502;6.918;2023-06-19T15:01:20;30.20;1.00
17215;DHT22;8723;51.502;6.918;2023-06-19T15:03:47;30.20;1.00
17215;DHT22;8723;51.502;6.918;2023-06-19T15:06:14;30.10;1.00
17215;DHT22;8723;51.502;6.918;2023-06-19T15:08:41;30.00;1.00
17215;DHT22;8723;51.502;6.918;2023-06-19T15:11:09;29.90;1.00
17215;DHT22;8723;51.502;6.918;2023-06-19T15:13:36;29.90;1.00
17215;DHT22;8723;51.502;6.918;2023-06-19T15:16:03;29.80;1.00
17215;DHT22;8723;51.502;6.918;2023-06-19T15:18:30;29.70;1.00
17215;DHT22;8723;51.502;6.918;2023-06-19T15:20:57;29.70;1.00
17215;DHT22;8723;51.502;6.918;2023-06-19T15:23:24;29.70;1.00
17215;DHT22;8723;51.502;6.918;2023-06-19T15:25:51;29.50;1.00
17215;DHT22;8723;51.502;6.918;2023-06-19T15:28:19;29.50;1.00
17215;DHT22;8723;51.502;6.918;2023-06-19T15:30:46;29.50;1.00
17215;DHT22;8723;51.502;6.918;2023-06-19T15:33:12;29.40;1.00
17215;DHT22;8723;51.502;6.918;2023-06-19T15:35:39;29.40;1.00
17215;DHT22;8723;51.502;6.918;2023-06-19T15:38:06;29.30;1.00
17215;DHT22;8723;51.502;6.918;2023-06-19T15:40:33;29.30;1.00
17215;DHT22;8723;51.502;6.918;2023-06-19T15:43:00;29.30;1.00
17215;DHT22;8723;51.502;6.918;2023-06-19T15:45:28;29.20;1.00
17215;DHT22;8723;51.502;6.918;2023-06-19T15:47:55;29.20;1.00
17215;DHT22;8723;51.502;6.918;2023-06-19T15:50:22;29.10;1.00
17215;DHT22;8723;51.502;6.918;2023-06-19T15:52:49;29.00;1.00
17215;DHT22;8723;51.502;6.918;2023-06-19T15:55:16;28.90;1.00
17215;DHT22;8723;51.502;6.918;2023-06-19T15:57:42;29.00;1.00
17215;DHT22;8723;51.502;6.918;2023-06-19T16:00:10;28.80;1.00
17215;DHT22;8723;51.502;6.918;2023-06-19T16:02:40;28.80;1.00
17215;DHT22;8723;51.502;6.918;2023-06-19T16:05:08;28.80;1.00
17215;DHT22;8723;51.502;6.918;2023-06-19T16:07:35;28.80;1.00